Time;durP1;ratioP1;P1;durP2;ratioP2;P2;SDS_P1;SDS_P2;PMS_P1;PMS_P2;Temp;Humidity;BMP_temperature;BMP_pressure;BME280_temperature;BME280_humidity;BME280_pressure;Samples;Min_cycle;Max_cycle;Signal;HPM_P1;HPM_P2
2022/10/07 00:01:54;;;;;;;13.10;5.53;;;9.60;99.90;;;;;;5072822;28;20052;-82
2022/10/07 00:04:20;;;;;;;14.82;4.50;;;9.70;99.90;;;;;;5043120;28;20035;-82
2022/10/07 00:06:47;;;;;;;8.02;3.90;;;9.60;99.90;;;;;;5076253;28;20028;-82
2022/10/07 00:09:12;;;;;;;8.70;3.50;;;9.60;99.90;;;;;;5074902;28;20118;-82
2022/10/07 00:11:38;;;;;;;8.15;3.17;;;9.60;99.90;;;;;;5059755;28;20064;-82
2022/10/07 00:14:06;;;;;;;5.45;2.97;;;9.50;99.90;;;;;;5060260;28;20020;-82
2022/10/07 00:16:37;;;;;;;6.68;3.00;;;9.50;99.90;;;;;;5094636;28;20024;-82
2022/10/07 00:19:06;;;;;;;6.35;2.80;;;9.50;99.90;;;;;;5076924;28;20086;-82
2022/10/07 00:21:34;;;;;;;3.88;2.33;;;9.40;99.90;;;;;;5075008;28;20028;-82
2022/10/07 00:24:00;;;;;;;5.47;2.28;;;9.40;99.90;;;;;;5076454;28;20078;-82
2022/10/07 00:26:29;;;;;;;3.88;2.08;;;9.40;99.90;;;;;;5076345;28;20026;-82
2022/10/07 00:28:55;;;;;;;3.78;2.63;;;9.40;99.90;;;;;;5076248;28;20032;-82
2022/10/07 00:31:23;;;;;;;6.22;2.40;;;9.30;99.90;;;;;;5074153;28;20095;-82
2022/10/07 00:33:50;;;;;;;6.40;2.67;;;9.30;99.90;;;;;;5073908;28;20016;-82
2022/10/07 00:36:28;;;;;;;3.97;2.50;;;9.20;99.90;;;;;;5059521;28;20024;-82
2022/10/07 00:39:00;;;;;;;5.90;2.63;;;9.20;99.90;;;;;;5076089;28;20059;-82
2022/10/07 00:41:31;;;;;;;6.63;2.83;;;9.20;99.90;;;;;;5074206;28;20168;-82
2022/10/07 00:43:58;;;;;;;7.82;3.05;;;9.20;99.90;;;;;;5076046;28;20028;-82
2022/10/07 00:46:28;;;;;;;5.20;2.38;;;9.20;99.90;;;;;;5059666;28;20039;-82
2022/10/07 00:48:59;;;;;;;4.50;2.50;;;9.10;99.90;;;;;;5075916;28;20032;-82
2022/10/07 00:51:26;;;;;;;4.40;2.20;;;9.10;99.90;;;;;;5070163;28;20065;-82
2022/10/07 00:53:53;;;;;;;3.97;2.40;;;9.10;99.90;;;;;;5042928;28;20024;-82
2022/10/07 00:56:20;;;;;;;4.38;2.65;;;9.10;99.90;;;;;;5075669;28;20110;-82
2022/10/07 00:58:47;;;;;;;5.78;2.70;;;9.10;99.90;;;;;;5059367;28;20036;-82
2022/10/07 01:01:13;;;;;;;4.55;2.38;;;9.00;99.90;;;;;;5058936;28;20032;-82
2022/10/07 01:03:39;;;;;;;4.38;2.47;;;8.90;99.90;;;;;;5042437;28;20032;-82
2022/10/07 01:06:05;;;;;;;5.57;2.60;;;8.90;99.90;;;;;;5059153;28;20369;-82
2022/10/07 01:08:32;;;;;;;5.50;2.72;;;8.90;99.90;;;;;;5068373;28;20024;-82
2022/10/07 01:11:14;;;;;;;7.72;3.55;;;8.90;99.90;;;;;;5046798;28;20031;-82
2022/10/07 01:13:57;;;;;;;9.88;3.35;;;8.80;99.90;;;;;;5070546;28;20501;-82
2022/10/07 01:16:52;;;;;;;8.98;3.95;;;8.80;99.90;;;;;;5092654;28;20017;-83
2022/10/07 01:19:23;;;;;;;14.93;4.20;;;8.70;99.90;;;;;;5061435;28;20032;-82
2022/10/07 01:22:16;;;;;;;7.60;3.65;;;8.70;99.90;;;;;;5093614;28;20361;-82
2022/10/07 01:24:58;;;;;;;8.43;3.88;;;8.70;99.90;;;;;;5075283;28;20024;-82
2022/10/07 01:27:26;;;;;;;6.78;3.78;;;8.80;99.90;;;;;;5075265;28;20051;-82
2022/10/07 01:30:11;;;;;;;8.40;3.85;;;8.70;99.90;;;;;;5093588;28;20114;-82
2022/10/07 01:32:43;;;;;;;7.38;3.83;;;8.80;99.90;;;;;;5071609;28;20024;-82
2022/10/07 01:35:17;;;;;;;6.43;3.10;;;8.80;99.90;;;;;;5074787;28;20027;-82
2022/10/07 01:37:51;;;;;;;5.25;3.08;;;8.70;99.90;;;;;;5074096;28;20024;-82
2022/10/07 01:40:43;;;;;;;6.25;3.78;;;8.70;99.90;;;;;;5088756;28;20388;-82
2022/10/07 01:43:12;;;;;;;6.82;3.53;;;8.70;99.90;;;;;;5069915;28;20078;-81
2022/10/07 01:45:40;;;;;;;8.02;3.42;;;8.60;99.90;;;;;;5093256;28;20070;-82
2022/10/07 01:48:05;;;;;;;5.72;2.85;;;8.50;99.90;;;;;;5058013;28;20024;-82
2022/10/07 01:50:31;;;;;;;4.72;3.20;;;8.50;99.90;;;;;;5058049;28;20074;-82
2022/10/07 01:53:33;;;;;;;5.13;3.28;;;8.50;99.90;;;;;;5041846;28;20413;-82
2022/10/07 01:56:30;;;;;;;5.57;3.20;;;8.40;99.90;;;;;;5053443;28;20032;-82
2022/10/07 01:59:22;;;;;;;6.82;3.03;;;8.40;99.90;;;;;;5065127;28;20028;-82
2022/10/07 02:01:59;;;;;;;5.47;3.50;;;8.40;99.90;;;;;;5069651;28;20476;-82
2022/10/07 02:04:49;;;;;;;6.70;3.42;;;8.40;99.90;;;;;;5088584;28;20016;-82
2022/10/07 02:07:32;;;;;;;6.55;3.65;;;8.40;99.90;;;;;;5074130;28;20116;-82
2022/10/07 02:10:11;;;;;;;4.50;3.20;;;8.30;99.90;;;;;;5073461;28;20028;-83
2022/10/07 02:12:47;;;;;;;6.72;3.63;;;8.40;99.90;;;;;;5068944;28;20434;-82
2022/10/07 02:15:18;;;;;;;4.78;2.72;;;8.30;99.90;;;;;;5073218;28;20510;-82
2022/10/07 02:17:50;;;;;;;4.38;2.65;;;8.30;99.90;;;;;;5074221;28;20118;-82
2022/10/07 02:20:18;;;;;;;4.40;3.05;;;8.30;99.90;;;;;;5074072;28;20479;-82
2022/10/07 02:22:46;;;;;;;5.85;3.42;;;8.30;99.90;;;;;;5070390;28;20036;-82
2022/10/07 02:25:15;;;;;;;7.43;3.30;;;8.20;99.90;;;;;;5073032;28;20492;-82
2022/10/07 02:27:43;;;;;;;4.32;3.05;;;8.20;99.90;;;;;;5072791;28;20024;-82
2022/10/07 02:30:12;;;;;;;7.88;3.40;;;8.20;99.90;;;;;;5073915;28;20035;-83
2022/10/07 02:32:41;;;;;;;6.43;3.13;;;8.20;99.90;;;;;;5073636;28;20021;-82
2022/10/07 02:35:18;;;;;;;4.95;2.70;;;8.20;99.90;;;;;;5057698;28;20039;-83
2022/10/07 02:37:48;;;;;;;5.72;3.28;;;8.20;99.90;;;;;;5091415;28;20375;-83
2022/10/07 02:40:14;;;;;;;5.95;3.08;;;8.20;99.90;;;;;;5072447;28;20649;-82
2022/10/07 02:42:57;;;;;;;5.35;3.00;;;8.20;99.90;;;;;;5057850;28;20028;-83
2022/10/07 02:45:44;;;;;;;6.50;3.65;;;8.20;99.90;;;;;;5074232;28;20032;-83
2022/10/07 02:48:38;;;;;;;4.63;2.88;;;8.10;99.90;;;;;;5073293;28;20536;-83
2022/10/07 02:51:09;;;;;;;4.88;2.90;;;8.10;99.90;;;;;;5069106;28;20119;-83
2022/10/07 02:53:37;;;;;;;5.78;3.40;;;8.10;99.90;;;;;;5091513;28;20099;-82
2022/10/07 02:56:04;;;;;;;5.85;3.17;;;8.20;99.90;;;;;;5057562;28;20075;-82
2022/10/07 02:58:30;;;;;;;6.07;3.70;;;8.10;99.90;;;;;;5060438;28;20127;-82
2022/10/07 03:00:59;;;;;;;7.32;3.80;;;8.10;99.90;;;;;;5061137;28;20066;-82
2022/10/07 03:03:26;;;;;;;7.63;3.75;;;8.00;99.90;;;;;;5078091;28;20092;-82
2022/10/07 03:05:52;;;;;;;6.82;3.67;;;8.00;99.90;;;;;;5096159;28;20486;-82
2022/10/07 03:08:20;;;;;;;6.65;3.70;;;8.00;99.90;;;;;;5077849;28;20035;-82
2022/10/07 03:10:46;;;;;;;9.48;3.40;;;8.10;99.90;;;;;;5061224;28;20024;-83
2022/10/07 03:13:14;;;;;;;6.53;3.75;;;8.10;99.90;;;;;;5060987;28;20020;-82
2022/10/07 03:15:40;;;;;;;6.57;4.10;;;8.10;99.90;;;;;;5095856;28;20450;-83
2022/10/07 03:18:24;;;;;;;7.93;4.70;;;8.10;99.90;;;;;;5077806;28;20036;-83
2022/10/07 03:20:52;;;;;;;11.90;4.40;;;8.10;99.90;;;;;;5063494;28;20077;-83
2022/10/07 03:23:18;;;;;;;9.85;4.68;;;8.10;99.90;;;;;;5077509;28;20510;-83
2022/10/07 03:25:49;;;;;;;8.10;3.92;;;8.10;99.90;;;;;;5061080;28;20058;-83
2022/10/07 03:28:15;;;;;;;7.40;4.07;;;8.10;99.90;;;;;;5075488;28;20016;-83
2022/10/07 03:30:40;;;;;;;6.82;4.10;;;8.10;99.90;;;;;;5060145;28;20032;-83
2022/10/07 03:33:07;;;;;;;10.02;4.20;;;8.10;99.90;;;;;;5059561;28;20028;-83
2022/10/07 03:35:32;;;;;;;8.35;4.50;;;8.10;99.90;;;;;;5044381;28;20039;-83
2022/10/07 03:37:58;;;;;;;8.48;4.43;;;8.10;99.90;;;;;;5077435;28;20379;-83
2022/10/07 03:40:24;;;;;;;7.72;4.00;;;8.10;99.90;;;;;;5040628;28;20047;-83
2022/10/07 03:42:49;;;;;;;9.20;4.10;;;8.10;99.90;;;;;;5040914;28;20039;-82
2022/10/07 03:45:15;;;;;;;7.90;4.32;;;8.10;99.90;;;;;;5077511;28;20103;-82
2022/10/07 03:47:40;;;;;;;10.05;5.05;;;8.10;99.90;;;;;;5060543;28;20039;-83
2022/10/07 03:50:07;;;;;;;9.90;5.15;;;8.10;99.90;;;;;;5060650;28;20047;-83
2022/10/07 03:52:35;;;;;;;8.75;4.22;;;8.10;99.90;;;;;;5095688;28;20046;-82
2022/10/07 03:55:01;;;;;;;9.82;4.38;;;8.10;99.90;;;;;;5063359;23;20096;-73
2022/10/07 04:00:11;;;;;;;8.23;4.88;;;8.10;99.90;;;;;;5075353;28;20147;-73
2022/10/07 04:02:37;;;;;;;7.93;4.82;;;8.20;99.90;;;;;;5075113;28;20024;-73
2022/10/07 04:05:03;;;;;;;6.78;4.35;;;8.10;99.90;;;;;;5056450;28;20040;-73
2022/10/07 04:07:28;;;;;;;8.68;4.45;;;8.10;99.90;;;;;;5074936;28;20111;-73
2022/10/07 04:09:54;;;;;;;6.75;4.20;;;8.10;99.90;;;;;;5075506;28;20453;-74
2022/10/07 04:12:20;;;;;;;6.30;3.60;;;8.10;99.90;;;;;;5056674;28;20528;-74
2022/10/07 04:14:45;;;;;;;5.38;3.65;;;8.10;99.90;;;;;;5056670;28;20393;-74
2022/10/07 04:17:11;;;;;;;6.07;3.25;;;8.10;99.90;;;;;;5074891;28;20039;-75
2022/10/07 04:19:37;;;;;;;5.45;3.40;;;8.10;99.90;;;;;;5074696;28;20365;-75
2022/10/07 04:22:04;;;;;;;6.07;3.30;;;8.10;99.90;;;;;;5074497;28;20086;-75
2022/10/07 04:24:29;;;;;;;5.95;3.08;;;8.10;99.90;;;;;;5074391;28;20024;-75
2022/10/07 04:26:55;;;;;;;6.22;3.47;;;8.10;99.90;;;;;;5074244;28;20503;-75
2022/10/07 04:29:20;;;;;;;5.15;3.45;;;8.10;99.90;;;;;;5056385;28;20435;-75
2022/10/07 04:31:46;;;;;;;4.28;3.00;;;8.10;99.90;;;;;;5074200;28;20024;-74
2022/10/07 04:34:12;;;;;;;9.00;4.07;;;8.10;99.90;;;;;;5074268;28;20021;-74
2022/10/07 04:36:38;;;;;;;8.80;6.00;;;8.00;99.90;;;;;;5040101;28;20032;-74
2022/10/07 04:39:03;;;;;;;10.10;6.78;;;8.00;99.90;;;;;;5074490;28;20052;-73
2022/10/07 04:41:29;;;;;;;10.50;5.57;;;8.00;99.90;;;;;;5073700;28;20102;-73
2022/10/07 04:43:55;;;;;;;6.65;4.55;;;7.90;99.90;;;;;;5056274;28;20062;-74
2022/10/07 04:46:20;;;;;;;8.45;5.15;;;8.00;99.90;;;;;;5054738;28;20039;-74
2022/10/07 04:48:46;;;;;;;11.20;5.78;;;7.90;99.90;;;;;;5072532;28;20060;-74
2022/10/07 04:51:12;;;;;;;8.55;5.55;;;8.00;99.90;;;;;;5055839;28;20032;-73
2022/10/07 04:53:38;;;;;;;7.45;4.85;;;8.00;99.90;;;;;;5073588;28;20024;-74
2022/10/07 04:56:05;;;;;;;7.63;5.28;;;8.00;99.90;;;;;;5072505;28;20375;-74
2022/10/07 04:58:31;;;;;;;10.85;7.22;;;8.00;99.90;;;;;;5054942;28;20099;-73
2022/10/07 05:00:59;;;;;;;10.00;6.63;;;8.00;99.90;;;;;;5054809;28;20119;-74
2022/10/07 05:03:26;;;;;;;9.57;6.20;;;8.00;99.90;;;;;;5073129;28;20032;-74
2022/10/07 05:05:54;;;;;;;8.93;5.43;;;8.00;99.90;;;;;;5054875;28;20055;-74
2022/10/07 05:08:25;;;;;;;8.45;5.35;;;8.00;99.90;;;;;;5072754;28;20020;-74
2022/10/07 05:10:55;;;;;;;8.82;4.90;;;8.00;99.90;;;;;;5072669;28;20025;-74
2022/10/07 05:13:23;;;;;;;7.32;4.78;;;8.00;99.90;;;;;;5072605;28;20063;-74
2022/10/07 05:15:51;;;;;;;11.40;4.57;;;8.00;99.90;;;;;;5073209;28;20027;-74
2022/10/07 05:18:18;;;;;;;6.57;4.20;;;8.00;99.90;;;;;;5072787;28;20017;-74
2022/10/07 05:20:46;;;;;;;9.02;4.90;;;8.00;99.90;;;;;;5072764;28;20033;-74
2022/10/07 05:23:12;;;;;;;8.55;4.15;;;8.00;99.90;;;;;;5072647;28;20034;-74
2022/10/07 05:25:38;;;;;;;6.18;4.30;;;8.00;99.90;;;;;;5054668;28;20144;-74
2022/10/07 05:28:04;;;;;;;7.75;3.65;;;8.00;99.90;;;;;;5072356;28;20512;-74
2022/10/07 05:30:30;;;;;;;7.22;4.07;;;8.10;99.90;;;;;;5072460;28;20028;-74
2022/10/07 05:32:56;;;;;;;5.20;3.10;;;8.10;99.90;;;;;;5073008;28;20017;-74
2022/10/07 05:35:21;;;;;;;7.57;4.20;;;8.10;99.90;;;;;;5072539;28;20075;-74
2022/10/07 05:37:52;;;;;;;8.25;4.20;;;8.00;99.90;;;;;;5072457;28;20031;-74
2022/10/07 05:40:21;;;;;;;7.07;3.80;;;8.00;99.90;;;;;;5072534;28;20028;-74
2022/10/07 05:42:47;;;;;;;6.03;3.40;;;8.00;99.90;;;;;;5072601;28;20615;-73
2022/10/07 05:45:13;;;;;;;4.97;2.90;;;8.10;99.90;;;;;;5037966;28;20119;-74
2022/10/07 05:47:39;;;;;;;5.22;3.47;;;8.10;99.90;;;;;;5072293;28;20083;-74
2022/10/07 05:50:05;;;;;;;5.68;3.47;;;8.00;99.90;;;;;;5072117;28;20029;-74
2022/10/07 05:52:31;;;;;;;5.07;3.03;;;8.00;99.90;;;;;;5072237;28;20044;-74
2022/10/07 05:54:57;;;;;;;6.38;3.38;;;8.00;99.90;;;;;;5032630;28;1128491;-74
2022/10/07 05:57:23;;;;;;;5.57;3.10;;;8.00;99.90;;;;;;5072975;28;20020;-74
2022/10/07 05:59:50;;;;;;;5.22;3.40;;;8.00;99.90;;;;;;5055317;28;20029;-74
2022/10/07 06:02:17;;;;;;;5.35;3.60;;;7.90;99.90;;;;;;5073210;28;20078;-74
2022/10/07 06:04:47;;;;;;;5.60;3.67;;;7.90;99.90;;;;;;5073436;28;20111;-74
2022/10/07 06:07:14;;;;;;;6.25;3.63;;;7.80;99.90;;;;;;5073173;28;20035;-74
2022/10/07 06:15:08;;;;;;;7.13;4.07;;;7.70;99.90;;;;;;5073126;28;20028;-74
2022/10/07 06:17:42;;;;;;;4.70;3.30;;;7.60;99.90;;;;;;5073052;28;20032;-74
2022/10/07 06:20:09;;;;;;;6.07;3.70;;;7.70;99.90;;;;;;5072741;28;20082;-74
2022/10/07 06:22:35;;;;;;;5.47;3.78;;;7.70;99.90;;;;;;5072670;28;20114;-74
2022/10/07 06:25:01;;;;;;;6.07;3.42;;;7.80;99.90;;;;;;5072723;28;20037;-74
2022/10/07 06:27:27;;;;;;;6.60;3.58;;;7.80;99.90;;;;;;5072715;28;20028;-73
2022/10/07 06:29:53;;;;;;;5.80;3.78;;;7.90;99.90;;;;;;5075347;28;20063;-74
2022/10/07 06:32:19;;;;;;;6.28;3.53;;;7.90;99.90;;;;;;5076817;28;20056;-74
2022/10/07 06:34:45;;;;;;;6.82;3.85;;;8.00;99.90;;;;;;5076416;28;20033;-74
2022/10/07 06:37:10;;;;;;;7.65;4.05;;;8.00;99.90;;;;;;5076447;28;20020;-74
2022/10/07 06:39:36;;;;;;;8.18;4.40;;;8.10;99.90;;;;;;5076368;28;20037;-74
2022/10/07 06:42:02;;;;;;;6.43;3.78;;;8.10;99.90;;;;;;5058191;28;20064;-74
2022/10/07 06:44:29;;;;;;;6.07;3.80;;;8.20;99.90;;;;;;5076522;28;20095;-74
2022/10/07 06:46:54;;;;;;;7.13;4.68;;;8.20;99.90;;;;;;5058659;28;20455;-74
2022/10/07 06:49:20;;;;;;;9.35;5.03;;;8.30;99.90;;;;;;5058180;28;20120;-74
2022/10/07 06:51:46;;;;;;;12.88;5.85;;;8.30;99.90;;;;;;5076436;28;20366;-74
2022/10/07 06:54:12;;;;;;;11.02;4.97;;;8.40;99.90;;;;;;5076137;28;20021;-74
2022/10/07 06:56:39;;;;;;;10.77;5.03;;;8.40;99.90;;;;;;5075967;28;20032;-75
2022/10/07 06:59:05;;;;;;;8.73;4.50;;;8.40;99.90;;;;;;5058365;28;20385;-74
2022/10/07 07:01:30;;;;;;;12.10;4.75;;;8.40;99.90;;;;;;5075805;28;20031;-74
2022/10/07 07:03:56;;;;;;;8.52;4.82;;;8.40;99.90;;;;;;5075974;28;20021;-74
2022/10/07 07:06:22;;;;;;;9.23;4.90;;;8.50;99.90;;;;;;5076201;28;20025;-74
2022/10/07 07:08:49;;;;;;;8.45;4.82;;;8.50;99.90;;;;;;5075880;28;20029;-74
2022/10/07 07:14:01;;;;;;;9.27;5.15;;;8.60;99.90;;;;;;5076397;28;20027;-74
2022/10/07 07:16:27;;;;;;;10.73;5.65;;;8.60;99.90;;;;;;5075763;28;20025;-74
2022/10/07 07:18:55;;;;;;;14.63;7.25;;;8.70;99.90;;;;;;5075996;28;20021;-74
2022/10/07 07:21:22;;;;;;;12.35;6.72;;;8.70;99.90;;;;;;5075594;28;20460;-74
2022/10/07 07:23:47;;;;;;;11.85;6.28;;;8.70;99.90;;;;;;5075900;28;20021;-74
2022/10/07 07:26:13;;;;;;;9.70;5.45;;;8.70;99.90;;;;;;5075882;28;20464;-74
2022/10/07 07:28:39;;;;;;;12.38;6.95;;;8.70;99.90;;;;;;5075377;28;20464;-74
2022/10/07 07:31:09;;;;;;;11.00;6.28;;;8.80;99.90;;;;;;5075282;28;20056;-74
2022/10/07 07:33:38;;;;;;;8.15;5.32;;;8.80;99.90;;;;;;5075405;28;20020;-74
2022/10/07 07:36:15;;;;;;;12.35;6.55;;;8.90;99.90;;;;;;5057782;28;20024;-74
2022/10/07 07:38:52;;;;;;;12.43;5.97;;;8.90;99.90;;;;;;5075588;28;20017;-74
2022/10/07 07:41:21;;;;;;;12.75;6.25;;;9.00;99.90;;;;;;5073830;28;20021;-74
2022/10/07 07:43:49;;;;;;;10.57;6.07;;;9.10;99.90;;;;;;5074991;28;20021;-74
2022/10/07 07:46:15;;;;;;;9.73;4.93;;;9.10;99.90;;;;;;5057183;28;20040;-73
2022/10/07 07:48:41;;;;;;;8.50;5.03;;;9.20;99.90;;;;;;5075131;28;20047;-74
2022/10/07 07:51:06;;;;;;;7.53;4.60;;;9.30;99.90;;;;;;5075034;28;20040;-74
2022/10/07 07:53:33;;;;;;;8.98;5.05;;;9.30;99.90;;;;;;5074970;28;20032;-75
2022/10/07 07:56:01;;;;;;;9.35;5.90;;;9.40;99.90;;;;;;5056932;28;20028;-75
2022/10/07 07:58:27;;;;;;;12.88;7.07;;;9.40;99.90;;;;;;5057017;28;20021;-74
2022/10/07 08:01:08;;;;;;;11.32;6.55;;;9.50;99.90;;;;;;5057559;28;20465;-74
2022/10/07 08:03:38;;;;;;;10.88;7.50;;;9.50;99.90;;;;;;5074885;28;20503;-74
2022/10/07 08:06:05;;;;;;;24.02;13.00;;;9.50;99.90;;;;;;5074795;28;20036;-74
2022/10/07 08:08:32;;;;;;;32.80;17.58;;;9.60;99.90;;;;;;5075076;28;20029;-75
2022/10/07 08:11:06;;;;;;;24.25;13.43;;;9.50;99.90;;;;;;5056586;28;20036;-74
2022/10/07 08:13:32;;;;;;;21.80;12.73;;;9.60;99.90;;;;;;5074493;28;20028;-74
2022/10/07 08:15:58;;;;;;;20.60;12.40;;;9.60;99.90;;;;;;5074572;28;20027;-74
2022/10/07 08:18:23;;;;;;;21.90;12.32;;;9.60;99.90;;;;;;5074527;28;20025;-74
2022/10/07 08:21:00;;;;;;;34.08;15.93;;;9.70;99.90;;;;;;5074439;28;20043;-74
2022/10/07 08:23:28;;;;;;;44.05;21.55;;;9.70;99.90;;;;;;5056431;28;20392;-74
2022/10/07 08:25:57;;;;;;;51.88;25.95;;;9.80;99.90;;;;;;5056889;28;20073;-74
2022/10/07 08:28:24;;;;;;;46.38;25.00;;;9.80;99.90;;;;;;5074142;28;20050;-74
2022/10/07 08:30:53;;;;;;;54.42;26.10;;;9.90;99.90;;;;;;5039970;28;20028;-74
2022/10/07 08:33:21;;;;;;;57.25;28.48;;;10.00;99.90;;;;;;5056154;28;20435;-74
2022/10/07 08:35:57;;;;;;;54.08;27.90;;;10.10;99.90;;;;;;5074319;28;20111;-74
2022/10/07 08:38:23;;;;;;;45.42;22.63;;;10.30;99.90;;;;;;5056267;28;20017;-73
2022/10/07 08:40:50;;;;;;;31.92;19.20;;;10.40;99.90;;;;;;5073918;28;20393;-74
2022/10/07 08:43:19;;;;;;;29.30;17.15;;;10.50;99.90;;;;;;5073828;28;20399;-74
2022/10/07 08:45:46;;;;;;;24.20;15.80;;;10.60;99.90;;;;;;5074254;28;20059;-74
2022/10/07 08:48:17;;;;;;;25.55;15.95;;;10.80;99.90;;;;;;5074001;28;20071;-74
2022/10/07 08:51:03;;;;;;;;;;;10.90;99.90;;;;;;5074750;28;20464;-74
2022/10/07 08:53:33;;;;;;;23.00;14.48;;;11.00;99.90;;;;;;5073914;28;19936;-74
2022/10/07 08:56:28;;;;;;;22.83;13.27;;;11.20;99.90;;;;;;5073717;28;20055;-74
2022/10/07 08:59:02;;;;;;;21.98;14.90;;;11.30;99.90;;;;;;5056321;28;20035;-74
2022/10/07 09:01:28;;;;;;;18.55;12.93;;;11.50;99.90;;;;;;5073626;28;20029;-74
2022/10/07 09:03:56;;;;;;;14.05;10.05;;;11.60;99.90;;;;;;5073700;28;20029;-74
2022/10/07 09:06:51;;;;;;;15.43;10.02;;;11.80;99.90;;;;;;5055777;28;20391;-74
2022/10/07 09:09:26;;;;;;;17.55;11.73;;;12.00;99.90;;;;;;5073793;28;20031;-74
2022/10/07 09:11:55;;;;;;;19.05;9.80;;;12.10;99.90;;;;;;5073225;28;20027;-73
2022/10/07 09:14:38;;;;;;;12.63;8.68;;;12.30;99.90;;;;;;5073831;28;20013;-75
2022/10/07 09:17:16;;;;;;;16.15;7.18;;;12.50;99.90;;;;;;5073521;28;20024;-74
2022/10/07 09:19:47;;;;;;;12.57;9.05;;;12.60;99.90;;;;;;5073413;28;20020;-75
2022/10/07 09:22:18;;;;;;;13.15;7.95;;;12.80;99.90;;;;;;5073795;28;20020;-74
2022/10/07 09:24:45;;;;;;;;;;;12.90;99.90;;;;;;5073840;28;20472;-74
2022/10/07 09:27:16;;;;;;;12.73;9.07;;;13.00;99.90;;;;;;5073151;28;19905;-73
2022/10/07 09:29:43;;;;;;;15.23;10.10;;;13.20;99.90;;;;;;5073124;28;20021;-74
2022/10/07 09:32:16;;;;;;;14.20;9.63;;;13.30;99.90;;;;;;5038766;28;20111;-74
2022/10/07 09:34:42;;;;;;;17.23;10.10;;;13.50;99.90;;;;;;5073502;28;20028;-74
2022/10/07 09:37:14;;;;;;;14.93;10.27;;;13.60;99.90;;;;;;5055086;28;20027;-74
2022/10/07 09:39:42;;;;;;;18.67;9.68;;;13.70;99.90;;;;;;5073682;28;20024;-74
2022/10/07 09:42:25;;;;;;;15.98;8.90;;;13.80;99.90;;;;;;5072857;28;20036;-73
2022/10/07 09:44:54;;;;;;;13.10;8.45;;;14.00;99.90;;;;;;5073159;28;20030;-74
2022/10/07 09:47:25;;;;;;;10.10;7.10;;;14.10;99.90;;;;;;5073643;28;20020;-73
2022/10/07 09:49:55;;;;;;;10.63;6.90;;;14.30;99.90;;;;;;5073207;28;20058;-73
2022/10/07 09:52:53;;;;;;;14.13;7.30;;;14.40;99.90;;;;;;5073578;28;20395;-74
2022/10/07 09:55:39;;;;;;;16.25;6.43;;;14.60;99.90;;;;;;5054804;28;20064;-74
2022/10/07 09:58:26;;;;;;;15.02;7.03;;;14.70;99.90;;;;;;5072910;28;20025;-73
2022/10/07 10:00:54;;;;;;;11.52;7.63;;;14.80;99.90;;;;;;5054874;28;20107;-74
2022/10/07 10:03:27;;;;;;;15.05;7.07;;;14.90;99.90;;;;;;5072962;28;20040;-74
2022/10/07 10:06:05;;;;;;;9.57;5.70;;;15.10;99.90;;;;;;5059406;28;20032;-73
2022/10/07 10:08:36;;;;;;;11.65;5.40;;;15.20;99.90;;;;;;5059032;28;20028;-74
2022/10/07 10:11:05;;;;;;;9.00;4.70;;;15.40;99.90;;;;;;5097571;22;20130;-82
2022/10/07 10:13:39;;;;;;;12.98;6.43;;;15.50;99.90;;;;;;5078524;28;20052;-82
2022/10/07 10:16:24;;;;;;;17.02;7.13;;;15.70;99.90;;;;;;5090600;28;20016;-81
2022/10/07 10:19:02;;;;;;;15.52;6.95;;;15.80;99.90;;;;;;5079042;28;20028;-81
2022/10/07 10:24:12;;;;;;;11.10;6.70;;;16.00;99.90;;;;;;5094993;28;20384;-74
2022/10/07 10:27:03;;;;;;;9.98;6.63;;;16.20;99.90;;;;;;5079118;28;20403;-73
2022/10/07 10:29:49;;;;;;;11.27;5.70;;;16.30;99.90;;;;;;5096622;28;20052;-74
2022/10/07 10:32:43;;;;;;;9.38;4.50;;;16.40;99.90;;;;;;5096899;28;20020;-73
2022/10/07 10:35:22;;;;;;;8.95;4.63;;;16.50;99.90;;;;;;5068228;28;20479;-73
2022/10/07 10:38:02;;;;;;;6.93;4.28;;;16.70;99.90;;;;;;5096758;28;20020;-73
2022/10/07 10:40:37;;;;;;;7.07;4.43;;;16.70;99.90;;;;;;5096660;28;20024;-73
2022/10/07 10:43:10;;;;;;;7.40;3.90;;;16.90;99.90;;;;;;5096635;28;20479;-74
2022/10/07 10:45:54;;;;;;;7.32;3.42;;;16.90;99.90;;;;;;5096878;28;20046;-74
2022/10/07 10:48:31;;;;;;;5.63;3.70;;;16.90;99.90;;;;;;5096565;28;20030;-73
2022/10/07 10:51:13;;;;;;;10.48;3.78;;;17.00;99.90;;;;;;5096406;28;20467;-74
2022/10/07 10:54:06;;;;;;;4.22;2.95;;;17.10;99.90;;;;;;5096532;28;20475;-74
2022/10/07 10:56:49;;;;;;;9.63;4.10;;;17.20;99.90;;;;;;5096438;28;20024;-73
2022/10/07 10:59:33;;;;;;;8.25;4.07;;;17.30;99.90;;;;;;5096156;28;20020;-74
2022/10/07 11:02:37;;;;;;;8.05;3.80;;;17.40;99.90;;;;;;5096630;28;20107;-74
2022/10/07 11:05:13;;;;;;;6.05;2.40;;;17.60;99.90;;;;;;5094095;28;20036;-74
2022/10/07 11:08:03;;;;;;;7.20;2.63;;;17.80;99.90;;;;;;5078129;28;20020;-74
2022/10/07 11:10:45;;;;;;;5.20;3.65;;;17.90;99.90;;;;;;5096340;28;20089;-72
2022/10/07 11:13:42;;;;;;;6.10;3.90;;;18.00;99.90;;;;;;5095919;28;20028;-73
2022/10/07 11:16:21;;;;;;;11.40;4.22;;;18.10;99.90;;;;;;5096033;28;20020;-73
2022/10/07 11:18:54;;;;;;;8.15;4.32;;;18.20;99.90;;;;;;5096320;28;20333;-73
2022/10/07 11:21:31;;;;;;;8.75;4.32;;;18.30;99.90;;;;;;5095888;28;20019;-72
2022/10/07 11:24:20;;;;;;;6.38;3.35;;;18.40;99.90;;;;;;5095833;28;20056;-73
2022/10/07 11:27:06;;;;;;;7.57;4.63;;;18.50;99.90;;;;;;5096149;28;20427;-73
2022/10/07 11:29:38;;;;;;;8.73;4.90;;;18.60;99.90;;;;;;5095420;28;20464;-74
2022/10/07 11:32:11;;;;;;;7.75;4.35;;;18.70;99.90;;;;;;5096195;28;20468;-73
2022/10/07 11:34:39;;;;;;;7.25;4.15;;;18.80;99.90;;;;;;5096183;28;20043;-73
2022/10/07 11:37:36;;;;;;;7.70;4.57;;;18.90;99.20;;;;;;5096319;28;20030;-73
2022/10/07 11:40:06;;;;;;;6.30;4.45;;;19.00;99.90;;;;;;5096155;28;20101;-74
2022/10/07 11:42:41;;;;;;;6.47;4.70;;;19.10;98.60;;;;;;5096011;28;20085;-73
2022/10/07 11:45:12;;;;;;;5.72;2.35;;;19.20;98.30;;;;;;5095872;28;20480;-73
2022/10/07 11:47:43;;;;;;;5.90;2.63;;;19.20;95.10;;;;;;5096206;28;20468;-73
2022/10/07 11:50:26;;;;;;;6.60;2.38;;;19.20;97.40;;;;;;5095739;28;20024;-73
2022/10/07 11:53:00;;;;;;;4.50;2.20;;;19.30;94.90;;;;;;5095933;28;20402;-72
2022/10/07 11:55:33;;;;;;;6.47;2.47;;;19.40;94.30;;;;;;5095958;28;20024;-73
2022/10/07 11:58:02;;;;;;;5.07;2.33;;;19.50;95.70;;;;;;5095852;28;20028;-73
2022/10/07 12:00:31;;;;;;;4.25;2.22;;;19.60;97.10;;;;;;5095298;28;20436;-73
2022/10/07 12:03:12;;;;;;;3.30;2.00;;;19.70;92.90;;;;;;5095888;28;20032;-73
2022/10/07 12:05:37;;;;;;;6.78;2.45;;;19.80;94.40;;;;;;5095398;28;20051;-73
2022/10/07 12:08:22;;;;;;;3.60;1.80;;;19.80;91.00;;;;;;5095742;28;20024;-73
2022/10/07 12:10:52;;;;;;;3.55;1.70;;;19.80;92.10;;;;;;5095409;28;20385;-74
2022/10/07 12:13:19;;;;;;;4.30;1.90;;;19.90;91.20;;;;;;5095380;28;20012;-73
2022/10/07 12:15:50;;;;;;;6.07;2.40;;;20.00;91.00;;;;;;5096147;28;20020;-73
2022/10/07 12:18:18;;;;;;;4.88;2.45;;;20.10;93.10;;;;;;5095868;28;20039;-73
2022/10/07 12:20:50;;;;;;;3.47;1.98;;;20.30;93.40;;;;;;5095272;28;20499;-74
2022/10/07 12:23:18;;;;;;;5.30;2.63;;;20.40;92.60;;;;;;5095139;28;20513;-73
2022/10/07 12:25:53;;;;;;;2.85;2.03;;;20.60;92.40;;;;;;5095297;28;20479;-73
2022/10/07 12:28:41;;;;;;;6.32;2.30;;;20.80;93.30;;;;;;5094698;28;20036;-73
2022/10/07 12:31:15;;;;;;;5.10;2.08;;;20.80;90.60;;;;;;5094975;28;20047;-73
2022/10/07 12:33:44;;;;;;;3.65;2.10;;;20.80;92.10;;;;;;5095149;28;20059;-73
2022/10/07 12:36:24;;;;;;;4.38;2.22;;;20.80;92.50;;;;;;5094962;28;20023;-73
2022/10/07 12:38:56;;;;;;;6.05;2.50;;;20.90;93.60;;;;;;5095328;28;20028;-73
2022/10/07 12:41:41;;;;;;;5.63;2.33;;;21.10;94.30;;;;;;5095158;28;20098;-72
2022/10/07 12:44:07;;;;;;;6.68;2.30;;;21.20;92.10;;;;;;5076605;28;20099;-72
2022/10/07 12:46:36;;;;;;;5.35;2.40;;;21.40;93.00;;;;;;5095410;28;20479;-73
2022/10/07 12:49:19;;;;;;;7.93;2.70;;;21.50;91.80;;;;;;5095030;28;20024;-73
2022/10/07 12:51:45;;;;;;;5.88;2.92;;;21.50;92.20;;;;;;5095397;28;20190;-73
2022/10/07 12:54:32;;;;;;;6.80;2.90;;;21.60;94.80;;;;;;5094869;28;20082;-73
2022/10/07 12:56:59;;;;;;;6.13;2.50;;;21.70;94.70;;;;;;5094816;28;20472;-73
2022/10/07 12:59:54;;;;;;;4.28;2.67;;;21.90;93.30;;;;;;5093866;28;20032;-72
2022/10/07 13:02:29;;;;;;;7.70;2.22;;;22.00;92.30;;;;;;5078991;28;20407;-72
2022/10/07 13:05:21;;;;;;;5.55;2.42;;;22.10;93.30;;;;;;5094066;28;20016;-72
2022/10/07 13:08:23;;;;;;;4.63;2.33;;;22.20;91.70;;;;;;5093961;28;20024;-72
2022/10/07 13:11:16;;;;;;;3.47;2.22;;;22.30;92.70;;;;;;5093953;28;20103;-72
2022/10/07 13:14:19;;;;;;;4.75;2.13;;;22.40;92.50;;;;;;5093649;28;20020;-72
2022/10/07 13:17:09;;;;;;;5.07;1.90;;;22.50;91.00;;;;;;5075680;28;20028;-72
2022/10/07 13:19:58;;;;;;;4.63;2.03;;;22.60;91.30;;;;;;5093992;28;20046;-72
2022/10/07 13:22:25;;;;;;;4.30;1.88;;;22.60;91.50;;;;;;5093552;28;20036;-73
2022/10/07 13:24:55;;;;;;;5.13;1.80;;;22.60;90.20;;;;;;5075426;28;20036;-72
2022/10/07 13:27:29;;;;;;;5.95;1.77;;;22.60;91.70;;;;;;5093902;28;20028;-72
2022/10/07 13:29:58;;;;;;;2.85;1.70;;;22.80;92.30;;;;;;5093204;28;20081;-72